createdAt,value
2016-12-12T07:16:27.950Z,329
2016-12-12T07:17:00.081Z,328
2016-12-12T07:17:32.907Z,328
2016-12-12T07:18:06.809Z,327
2016-12-12T07:18:38.945Z,329
2016-12-12T07:19:11.080Z,329
2016-12-12T07:19:43.215Z,327
2016-12-12T07:20:15.367Z,329
2016-12-12T07:20:47.512Z,329
2016-12-12T07:21:19.652Z,328
2016-12-12T07:21:51.785Z,329
2016-12-12T07:22:23.918Z,329
2016-12-12T07:22:58.734Z,327
2016-12-12T07:23:30.874Z,328
2016-12-12T07:24:03.022Z,329
2016-12-12T07:24:38.256Z,329
2016-12-12T07:25:10.388Z,329
2016-12-12T07:25:42.526Z,329
2016-12-12T07:26:14.663Z,329
2016-12-12T07:26:46.799Z,330
2016-12-12T07:27:18.933Z,329
2016-12-12T07:27:51.077Z,329
2016-12-12T07:28:23.228Z,329
2016-12-12T07:28:55.357Z,329
2016-12-12T07:29:28.729Z,329
2016-12-12T07:30:00.862Z,329
2016-12-12T07:30:33.001Z,329
2016-12-12T07:31:05.158Z,329
2016-12-12T07:31:37.799Z,329
2016-12-12T07:32:09.942Z,329
2016-12-12T07:32:42.730Z,329
2016-12-12T07:33:14.893Z,329
2016-12-12T07:33:47.037Z,329
2016-12-12T07:34:21.268Z,329
2016-12-12T07:34:54.366Z,328
2016-12-12T07:35:26.496Z,328
2016-12-12T07:36:00.277Z,328
2016-12-12T07:36:34.809Z,329
2016-12-12T07:37:06.957Z,329
2016-12-12T07:37:39.098Z,332
2016-12-12T07:38:12.769Z,332
2016-12-12T07:38:44.898Z,332
2016-12-12T07:39:17.052Z,331
2016-12-12T07:39:49.816Z,330
2016-12-12T07:40:21.956Z,331
2016-12-12T07:40:54.091Z,330
2016-12-12T07:41:26.224Z,332
2016-12-12T07:42:00.842Z,332
2016-12-12T07:42:34.327Z,332
2016-12-12T07:43:07.272Z,332
2016-12-12T07:43:40.277Z,331
2016-12-12T07:44:13.367Z,331
2016-12-12T07:44:50.015Z,330
2016-12-12T07:45:24.563Z,331
2016-12-12T07:45:57.609Z,331
2016-12-12T07:46:31.562Z,331
2016-12-12T07:47:03.717Z,331
2016-12-12T07:47:35.855Z,334
2016-12-12T07:48:08.009Z,333
2016-12-12T07:48:40.658Z,333
2016-12-12T07:49:15.565Z,333
2016-12-12T07:49:48.176Z,333
2016-12-12T07:50:22.065Z,333
2016-12-12T07:50:55.157Z,333
2016-12-12T07:51:27.297Z,334
2016-12-12T07:52:02.878Z,330
2016-12-12T07:52:35.875Z,334
2016-12-12T07:53:09.875Z,334
2016-12-12T07:53:43.948Z,333
2016-12-12T07:54:16.087Z,333
2016-12-12T07:54:48.227Z,333
2016-12-12T07:55:20.387Z,332
2016-12-12T07:55:52.547Z,332
2016-12-12T07:56:24.684Z,332
2016-12-12T07:56:58.100Z,334
2016-12-12T07:57:30.258Z,333
2016-12-12T07:58:02.393Z,333
2016-12-12T07:58:36.592Z,326
2016-12-12T07:59:08.746Z,327
2016-12-12T07:59:42.258Z,328
2016-12-12T08:00:14.391Z,328
2016-12-12T08:00:46.515Z,328
2016-12-12T08:01:19.231Z,326
2016-12-12T08:01:51.375Z,329
2016-12-12T08:02:24.915Z,329
2016-12-12T08:02:58.841Z,329
2016-12-12T08:03:30.988Z,330
2016-12-12T08:04:03.122Z,331
2016-12-12T08:04:35.250Z,331
2016-12-12T08:05:07.384Z,331
2016-12-12T08:05:39.533Z,332
2016-12-12T08:06:11.646Z,332
2016-12-12T08:06:43.795Z,332
2016-12-12T08:07:15.940Z,333
2016-12-12T08:07:48.077Z,332
2016-12-12T08:08:20.221Z,333
2016-12-12T08:08:52.372Z,334
2016-12-12T08:09:24.540Z,333
2016-12-12T08:09:56.682Z,334
2016-12-12T08:10:28.856Z,334
2016-12-12T08:11:01.008Z,334
2016-12-12T08:11:33.162Z,334
2016-12-12T08:12:05.297Z,335
2016-12-12T08:12:37.433Z,335
2016-12-12T08:13:11.474Z,335
2016-12-12T08:13:43.600Z,334
2016-12-12T08:14:15.735Z,335
2016-12-12T08:14:50.636Z,334
2016-12-12T08:15:25.447Z,334
2016-12-12T08:15:57.597Z,336
2016-12-12T08:16:32.294Z,336
2016-12-12T08:17:04.422Z,334
2016-12-12T08:17:36.561Z,335
2016-12-12T08:18:08.692Z,336
2016-12-12T08:18:41.797Z,335
2016-12-12T08:19:13.963Z,336
2016-12-12T08:19:46.835Z,336
2016-12-12T08:20:18.975Z,336
2016-12-12T08:20:51.096Z,337
2016-12-12T08:21:23.259Z,337
2016-12-12T08:21:56.308Z,337
2016-12-12T08:22:28.449Z,338
2016-12-12T08:23:00.601Z,338
2016-12-12T08:23:33.341Z,337
2016-12-12T08:24:05.512Z,337
2016-12-12T08:24:37.647Z,338
2016-12-12T08:25:09.785Z,337
2016-12-12T08:25:41.918Z,338
2016-12-12T08:26:14.052Z,339
2016-12-12T08:26:46.784Z,339
2016-12-12T08:27:18.932Z,339
2016-12-12T08:27:51.082Z,340
2016-12-12T08:28:23.220Z,340
2016-12-12T08:28:55.355Z,341
2016-12-12T08:29:27.490Z,338
2016-12-12T08:29:59.643Z,339
2016-12-12T08:30:31.799Z,340
2016-12-12T08:31:03.935Z,340
2016-12-12T08:31:36.075Z,341
2016-12-12T08:32:08.209Z,340
2016-12-12T08:32:40.364Z,341
2016-12-12T08:33:12.504Z,340
2016-12-12T08:33:44.673Z,340
2016-12-12T08:34:16.811Z,340
2016-12-12T08:34:49.787Z,340
2016-12-12T08:35:21.930Z,341
2016-12-12T08:35:54.061Z,340
2016-12-12T08:36:26.212Z,340
2016-12-12T08:36:58.360Z,340
2016-12-12T08:37:31.298Z,341
2016-12-12T08:38:04.256Z,340
2016-12-12T08:38:36.389Z,340
2016-12-12T08:39:11.068Z,341
2016-12-12T08:39:45.017Z,340
2016-12-12T08:40:17.163Z,341
2016-12-12T08:40:49.308Z,341
2016-12-12T08:41:21.439Z,341
2016-12-12T08:41:54.090Z,340
2016-12-12T08:42:26.226Z,341
2016-12-12T08:42:59.626Z,342
2016-12-12T08:43:31.769Z,340
2016-12-12T08:44:03.898Z,340
2016-12-12T08:44:36.031Z,340
2016-12-12T08:45:08.174Z,339
2016-12-12T08:45:40.317Z,339
2016-12-12T08:46:12.442Z,339
2016-12-12T08:46:44.582Z,339
2016-12-12T08:47:16.734Z,339
2016-12-12T08:47:52.258Z,341
2016-12-12T08:48:24.389Z,342
2016-12-12T08:48:56.526Z,341
2016-12-12T08:49:28.677Z,342
2016-12-12T08:50:02.336Z,341
2016-12-12T08:50:36.298Z,341
2016-12-12T08:51:11.082Z,341
2016-12-12T08:51:43.207Z,341
2016-12-12T08:52:15.355Z,341
2016-12-12T08:52:47.498Z,335
2016-12-12T08:53:19.623Z,337
2016-12-12T08:53:51.768Z,337
2016-12-12T08:54:23.898Z,336
2016-12-12T08:54:56.038Z,337
2016-12-12T08:55:28.183Z,337
2016-12-12T08:56:00.318Z,336
2016-12-12T08:56:33.127Z,337
2016-12-12T08:57:05.261Z,337
2016-12-12T08:57:37.409Z,338
2016-12-12T08:58:09.565Z,337
2016-12-12T08:58:42.650Z,336
2016-12-12T08:59:14.794Z,336
2016-12-12T08:59:46.933Z,337
2016-12-12T09:00:19.057Z,337
2016-12-12T09:00:51.201Z,329
2016-12-12T09:01:23.343Z,337
2016-12-12T09:01:55.497Z,337
2016-12-12T09:02:27.635Z,337
2016-12-12T09:02:59.776Z,336
2016-12-12T09:03:32.585Z,335
2016-12-12T09:04:04.727Z,335
2016-12-12T09:04:37.586Z,333
2016-12-12T09:05:09.734Z,333
2016-12-12T09:05:41.887Z,333
2016-12-12T09:06:14.017Z,333
2016-12-12T09:06:46.164Z,333
2016-12-12T09:07:19.041Z,334
2016-12-12T09:07:51.197Z,336
2016-12-12T09:08:23.361Z,337
2016-12-12T09:08:55.495Z,338
2016-12-12T09:09:27.641Z,337
2016-12-12T09:09:59.767Z,338
2016-12-12T09:10:31.918Z,338
2016-12-12T09:11:04.065Z,336
2016-12-12T09:11:36.211Z,336
2016-12-12T09:12:08.362Z,335
2016-12-12T09:12:40.499Z,336
2016-12-12T09:13:12.630Z,335
2016-12-12T09:13:44.780Z,335
2016-12-12T09:14:16.912Z,336
2016-12-12T09:14:49.042Z,336
2016-12-12T09:15:23.677Z,336
2016-12-12T09:15:55.815Z,336
2016-12-12T09:16:28.636Z,336
2016-12-12T09:17:00.786Z,336
2016-12-12T09:17:32.941Z,336
2016-12-12T09:18:05.632Z,337
2016-12-12T09:18:37.791Z,337
2016-12-12T09:19:09.926Z,336
2016-12-12T09:19:42.058Z,335
2016-12-12T09:20:15.667Z,337
2016-12-12T09:20:47.803Z,337
2016-12-12T09:21:19.937Z,337
2016-12-12T09:21:52.092Z,336
2016-12-12T09:22:24.219Z,336
2016-12-12T09:22:56.348Z,336
2016-12-12T09:23:28.500Z,336
2016-12-12T09:24:00.646Z,336
2016-12-12T09:24:32.777Z,335
2016-12-12T09:25:08.088Z,335
2016-12-12T09:25:40.228Z,335
2016-12-12T09:26:12.352Z,335
2016-12-12T09:26:44.505Z,335
2016-12-12T09:27:16.646Z,333
2016-12-12T09:27:48.773Z,334
2016-12-12T09:28:20.921Z,333
2016-12-12T09:28:53.065Z,333
2016-12-12T09:29:25.226Z,334
2016-12-12T09:29:57.369Z,332
2016-12-12T09:30:29.506Z,333
2016-12-12T09:31:01.655Z,333
2016-12-12T09:31:33.792Z,333
2016-12-12T09:32:05.933Z,332
2016-12-12T09:32:38.090Z,332
2016-12-12T09:33:10.246Z,332
2016-12-12T09:33:42.386Z,334
2016-12-12T09:34:14.511Z,332
2016-12-12T09:34:46.656Z,338
2016-12-12T09:35:20.843Z,336
2016-12-12T09:35:52.972Z,339
2016-12-12T09:36:25.109Z,340
2016-12-12T09:36:57.242Z,340
2016-12-12T09:37:29.375Z,339
2016-12-12T09:38:01.541Z,340
2016-12-12T09:38:33.675Z,336
2016-12-12T09:39:05.794Z,341
2016-12-12T09:39:37.929Z,341
2016-12-12T09:40:10.084Z,341
2016-12-12T09:40:42.215Z,342
2016-12-12T09:41:14.352Z,338
2016-12-12T09:41:47.341Z,338
2016-12-12T09:42:19.474Z,338
2016-12-12T09:42:52.417Z,339
2016-12-12T09:43:24.597Z,340
2016-12-12T09:43:56.745Z,339
2016-12-12T09:44:28.887Z,338
2016-12-12T09:45:01.030Z,338
2016-12-12T09:45:33.815Z,340
2016-12-12T09:46:05.972Z,341
2016-12-12T09:46:38.794Z,342
2016-12-12T09:47:11.848Z,343
2016-12-12T09:47:43.988Z,341
2016-12-12T09:48:16.139Z,342
2016-12-12T09:48:48.273Z,342
2016-12-12T09:49:20.410Z,341
2016-12-12T09:49:52.551Z,340
2016-12-12T09:50:24.692Z,341
2016-12-12T09:50:56.836Z,342
2016-12-12T09:51:28.973Z,341
2016-12-12T09:52:01.905Z,342
2016-12-12T09:52:34.031Z,344
2016-12-12T09:53:06.169Z,342
2016-12-12T09:53:38.324Z,344
2016-12-12T09:54:10.458Z,344
2016-12-12T09:54:42.593Z,344
2016-12-12T09:55:14.768Z,345
2016-12-12T09:55:47.841Z,345
2016-12-12T09:56:19.972Z,344
2016-12-12T09:56:52.121Z,344
2016-12-12T09:57:24.276Z,344
2016-12-12T09:57:56.414Z,344
2016-12-12T09:58:28.564Z,344
2016-12-12T09:59:00.693Z,343
2016-12-12T09:59:32.833Z,343
2016-12-12T10:00:04.968Z,342
2016-12-12T10:00:37.112Z,342
2016-12-12T10:01:09.868Z,342
2016-12-12T10:01:42.010Z,342
2016-12-12T10:02:14.173Z,342
2016-12-12T10:02:46.303Z,342
2016-12-12T10:03:18.439Z,343
2016-12-12T10:03:50.579Z,344
2016-12-12T10:04:22.742Z,344
2016-12-12T10:04:54.867Z,345
2016-12-12T10:05:27.007Z,347
2016-12-12T10:05:59.141Z,347
2016-12-12T10:06:31.276Z,349
2016-12-12T10:07:03.411Z,349
2016-12-12T10:07:35.560Z,349
2016-12-12T10:08:07.714Z,351
2016-12-12T10:08:39.895Z,350
2016-12-12T10:09:12.044Z,352
2016-12-12T10:09:44.171Z,351
2016-12-12T10:10:16.313Z,352
2016-12-12T10:10:48.441Z,354
2016-12-12T10:11:21.307Z,353
2016-12-12T10:11:53.475Z,354
2016-12-12T10:12:25.636Z,355
2016-12-12T10:12:57.787Z,354
2016-12-12T10:13:29.906Z,354
2016-12-12T10:14:02.050Z,355
2016-12-12T10:14:34.175Z,356
2016-12-12T10:15:06.804Z,356
2016-12-12T10:15:38.939Z,357
2016-12-12T10:16:11.076Z,358
2016-12-12T10:16:43.221Z,358
2016-12-12T10:17:15.355Z,359
2016-12-12T10:17:47.491Z,360
2016-12-12T10:18:19.625Z,360
2016-12-12T10:18:51.770Z,359
2016-12-12T10:19:23.907Z,358
2016-12-12T10:19:56.064Z,354
2016-12-12T10:20:28.207Z,360
2016-12-12T10:21:00.387Z,359
2016-12-12T10:21:32.525Z,360
2016-12-12T10:22:04.668Z,359
2016-12-12T10:22:36.821Z,359
2016-12-12T10:23:08.966Z,359
2016-12-12T10:23:43.088Z,359
2016-12-12T10:24:15.227Z,358
2016-12-12T10:24:47.370Z,356
2016-12-12T10:25:19.507Z,355
2016-12-12T10:25:51.664Z,355
2016-12-12T10:26:25.262Z,353
2016-12-12T10:26:58.187Z,353
2016-12-12T10:27:30.331Z,354
2016-12-12T10:28:02.459Z,352
2016-12-12T10:28:34.608Z,352
2016-12-12T10:29:07.687Z,351
2016-12-12T10:29:39.814Z,350
2016-12-12T10:30:11.951Z,349
2016-12-12T10:30:44.674Z,349
2016-12-12T10:31:17.632Z,349
2016-12-12T10:31:49.771Z,348
2016-12-12T10:32:21.924Z,349
2016-12-12T10:32:54.057Z,352
2016-12-12T10:33:26.183Z,353
2016-12-12T10:33:58.317Z,355
2016-12-12T10:34:30.459Z,353
2016-12-12T10:35:02.621Z,358
2016-12-12T10:35:34.750Z,359
2016-12-12T10:36:06.886Z,361
2016-12-12T10:36:39.024Z,364
2016-12-12T10:37:11.165Z,365
2016-12-12T10:37:43.304Z,365
2016-12-12T10:38:15.471Z,364
2016-12-12T10:38:47.624Z,365
2016-12-12T10:39:19.769Z,364
2016-12-12T10:39:51.902Z,363
2016-12-12T10:40:24.048Z,350
2016-12-12T10:40:56.188Z,353
2016-12-12T10:41:28.326Z,324
2016-12-12T10:42:00.492Z,344
2016-12-12T10:42:32.627Z,122
2016-12-12T10:43:04.767Z,109
2016-12-12T10:43:36.928Z,336
2016-12-12T10:44:09.064Z,339
2016-12-12T10:44:41.220Z,116
2016-12-12T10:45:13.364Z,114
2016-12-12T10:45:45.505Z,133
2016-12-12T10:46:19.764Z,350
2016-12-12T10:46:51.891Z,120
2016-12-12T10:47:24.860Z,117
2016-12-12T10:47:57.001Z,119
2016-12-12T10:48:30.355Z,120
2016-12-12T10:49:02.500Z,132
2016-12-12T10:49:34.637Z,117
2016-12-12T10:50:08.863Z,125
2016-12-12T10:50:40.998Z,348
2016-12-12T10:51:13.818Z,125
2016-12-12T10:51:45.969Z,122
2016-12-12T10:52:18.823Z,356
2016-12-12T10:52:50.956Z,360
2016-12-12T10:53:23.100Z,359
2016-12-12T10:53:55.234Z,117
2016-12-12T10:54:27.387Z,347
2016-12-12T10:54:59.529Z,350
2016-12-12T10:55:31.671Z,366
2016-12-12T10:56:03.809Z,163
2016-12-12T10:56:35.936Z,363
2016-12-12T10:57:08.067Z,144
2016-12-12T10:57:41.984Z,121
2016-12-12T10:58:14.134Z,325
2016-12-12T10:58:46.262Z,116
2016-12-12T10:59:18.395Z,134
2016-12-12T10:59:50.538Z,345
2016-12-12T11:00:22.677Z,123
2016-12-12T11:00:58.362Z,131
2016-12-12T11:01:30.492Z,123
2016-12-12T11:02:02.643Z,123
2016-12-12T11:02:34.776Z,133
2016-12-12T11:03:08.934Z,133
2016-12-12T11:03:41.082Z,178
2016-12-12T11:04:13.220Z,178
2016-12-12T11:04:45.362Z,179
2016-12-12T11:05:17.496Z,184
2016-12-12T11:05:49.623Z,187
2016-12-12T11:06:21.796Z,759
2016-12-12T11:06:53.951Z,305
2016-12-12T11:07:26.098Z,304
2016-12-12T11:07:58.238Z,305
2016-12-12T11:08:30.390Z,305
2016-12-12T11:09:02.567Z,303
2016-12-12T11:09:35.473Z,304
2016-12-12T11:10:10.249Z,303
2016-12-12T11:10:42.403Z,305
2016-12-12T11:11:14.556Z,306
2016-12-12T11:11:46.696Z,307
2016-12-12T11:12:18.849Z,307
2016-12-12T11:12:50.991Z,311
2016-12-12T11:13:23.140Z,309
2016-12-12T11:13:56.195Z,311
2016-12-12T11:14:28.333Z,313
2016-12-12T11:15:00.499Z,313
2016-12-12T11:15:32.667Z,314
2016-12-12T11:16:04.817Z,315
2016-12-12T11:16:37.747Z,316
2016-12-12T11:17:09.877Z,316
2016-12-12T11:17:42.019Z,316
2016-12-12T11:18:14.735Z,315
2016-12-12T11:18:46.869Z,313
2016-12-12T11:19:19.012Z,311
2016-12-12T11:19:51.157Z,309
2016-12-12T11:20:23.311Z,306
2016-12-12T11:20:55.459Z,304
2016-12-12T11:21:27.606Z,299
2016-12-12T11:22:01.233Z,298
2016-12-12T11:22:33.377Z,298
2016-12-12T11:23:05.520Z,299
2016-12-12T11:23:37.672Z,299
2016-12-12T11:24:09.810Z,299
2016-12-12T11:24:43.992Z,297
2016-12-12T11:25:17.605Z,295
2016-12-12T11:25:49.740Z,292
2016-12-12T11:26:21.904Z,289
2016-12-12T11:26:54.057Z,285
2016-12-12T11:27:26.190Z,283
2016-12-12T11:27:59.064Z,280
2016-12-12T11:28:31.205Z,279
2016-12-12T11:29:03.340Z,268
2016-12-12T11:29:38.645Z,251
2016-12-12T11:30:10.788Z,250
2016-12-12T11:30:42.938Z,248
2016-12-12T11:31:15.076Z,248
2016-12-12T11:31:47.215Z,249
2016-12-12T11:32:19.356Z,249
2016-12-12T11:32:51.494Z,250
2016-12-12T11:33:24.559Z,252
2016-12-12T11:33:58.210Z,258
2016-12-12T11:34:30.358Z,258
2016-12-12T11:35:03.231Z,253
2016-12-12T11:35:36.204Z,252
2016-12-12T11:36:08.340Z,251
2016-12-12T11:36:40.474Z,252
2016-12-12T11:37:12.614Z,281
2016-12-12T11:37:44.742Z,256
2016-12-12T11:38:16.885Z,274
2016-12-12T11:38:49.040Z,274
2016-12-12T11:39:21.187Z,270
2016-12-12T11:39:55.463Z,270
2016-12-12T11:40:27.598Z,271
2016-12-12T11:40:59.723Z,267
2016-12-12T11:41:31.864Z,269
2016-12-12T11:42:04.014Z,267
2016-12-12T11:42:36.152Z,268
2016-12-12T11:43:08.292Z,267
2016-12-12T11:43:40.429Z,264
2016-12-12T11:44:12.565Z,261
2016-12-12T11:44:44.702Z,261
2016-12-12T11:45:19.318Z,260
2016-12-12T11:45:51.454Z,261
2016-12-12T11:46:23.588Z,261
2016-12-12T11:46:55.723Z,264
2016-12-12T11:47:27.856Z,266
2016-12-12T11:47:59.997Z,271
2016-12-12T11:48:32.137Z,266
2016-12-12T12:19:09.949Z,65280
2016-12-12T12:19:42.622Z,65280
2016-12-12T12:20:15.298Z,65280
2016-12-12T12:20:48.656Z,65280
2016-12-12T12:21:21.347Z,65280
2016-12-12T12:21:54.709Z,65280
2016-12-12T12:22:28.155Z,65280
2016-12-12T12:23:57.618Z,65280
2016-12-12T12:24:30.307Z,65280
2016-12-12T12:25:53.722Z,65280
2016-12-12T12:26:26.418Z,65280
2016-12-12T12:27:11.601Z,65280
2016-12-12T12:27:44.281Z,65280
2016-12-12T12:28:16.968Z,65280
2016-12-12T12:32:00.775Z,180
2016-12-12T12:32:33.473Z,364
2016-12-12T12:33:06.178Z,528
2016-12-12T12:33:38.855Z,488
2016-12-12T12:34:11.540Z,488
2016-12-12T12:34:44.222Z,484
2016-12-12T12:35:16.899Z,488
2016-12-12T12:35:49.595Z,488
2016-12-12T12:36:22.282Z,488
2016-12-12T12:36:54.960Z,372
2016-12-12T12:37:27.646Z,372
2016-12-12T12:38:00.336Z,372
2016-12-12T12:38:33.014Z,372
2016-12-12T12:39:05.684Z,376
2016-12-12T12:39:38.376Z,372
2016-12-12T12:40:11.057Z,396
2016-12-12T12:40:43.740Z,388
2016-12-12T12:41:16.418Z,392
2016-12-12T12:41:49.963Z,392
2016-12-12T12:42:22.648Z,392
2016-12-12T12:42:55.932Z,380
2016-12-12T12:43:28.618Z,376
2016-12-12T12:44:01.319Z,376
2016-12-12T12:44:35.392Z,376
2016-12-12T12:45:08.108Z,376
2016-12-12T12:45:40.794Z,376
2016-12-12T12:46:13.479Z,372
2016-12-12T12:46:46.161Z,376
2016-12-12T12:47:18.875Z,372
2016-12-12T12:47:51.559Z,368
2016-12-12T12:48:26.671Z,372
2016-12-12T12:48:59.350Z,368
2016-12-12T12:49:32.040Z,368
2016-12-12T12:50:04.748Z,368
2016-12-12T12:50:39.978Z,368
2016-12-12T12:51:12.653Z,364
2016-12-12T12:51:45.337Z,364
2016-12-12T12:52:18.924Z,360
2016-12-12T12:52:55.007Z,360
2016-12-12T12:53:27.712Z,360
2016-12-12T12:54:03.324Z,360
2016-12-12T12:54:37.811Z,360
2016-12-12T12:55:10.498Z,360
2016-12-12T12:55:43.205Z,356
2016-12-12T12:56:15.903Z,356
2016-12-12T12:56:49.265Z,360
2016-12-12T12:57:21.978Z,360
2016-12-12T12:57:55.887Z,356
2016-12-12T12:58:28.561Z,356
2016-12-12T12:59:01.257Z,348
2016-12-12T12:59:33.955Z,348
2016-12-12T13:00:06.652Z,352
2016-12-12T13:00:39.319Z,352
2016-12-12T13:01:12.029Z,352
2016-12-12T13:01:45.962Z,348
2016-12-12T15:08:29.329Z,456
2016-12-12T15:09:01.996Z,456
